createdAt,value
2019-03-08T00:04:58.843Z,21.40
2019-03-08T00:10:58.903Z,21.39
2019-03-08T00:16:58.865Z,21.33
2019-03-08T00:22:59.941Z,21.36
2019-03-08T00:28:58.887Z,21.34
2019-03-08T00:34:58.845Z,21.32
2019-03-08T00:40:58.874Z,21.29
2019-03-08T00:46:58.879Z,21.27
2019-03-08T00:52:58.882Z,21.28
2019-03-08T00:58:58.891Z,21.33
2019-03-08T01:04:58.908Z,21.28
2019-03-08T01:11:01.971Z,21.25
2019-03-08T01:16:58.880Z,21.19
2019-03-08T01:22:59.002Z,21.15
2019-03-08T01:28:58.951Z,21.11
2019-03-08T01:34:58.924Z,21.06
2019-03-08T01:40:58.915Z,21.12
2019-03-08T01:46:58.931Z,21.13
2019-03-08T01:52:58.916Z,21.08
2019-03-08T01:58:58.950Z,21.03
2019-03-08T02:04:58.990Z,20.99
2019-03-08T02:10:58.907Z,20.96
2019-03-08T02:16:58.942Z,20.94
2019-03-08T02:22:58.971Z,20.91
2019-03-08T02:28:58.965Z,20.86
2019-03-08T02:34:58.939Z,20.83
2019-03-08T02:40:58.964Z,20.79
2019-03-08T02:46:58.961Z,20.76
2019-03-08T02:52:58.968Z,20.74
2019-03-08T02:58:58.970Z,20.71
2019-03-08T03:04:58.985Z,20.67
2019-03-08T03:10:58.943Z,20.63
2019-03-08T03:16:58.999Z,20.61
2019-03-08T03:22:58.995Z,20.58
2019-03-08T03:28:59.031Z,20.57
2019-03-08T03:34:59.019Z,20.51
2019-03-08T03:41:00.029Z,20.50
2019-03-08T03:46:59.003Z,20.44
2019-03-08T03:52:59.032Z,20.42
2019-03-08T03:58:59.027Z,20.39
2019-03-08T04:04:58.996Z,20.35
2019-03-08T04:10:59.009Z,20.30
2019-03-08T04:16:58.993Z,20.29
2019-03-08T04:22:59.026Z,20.26
2019-03-08T04:28:59.039Z,20.24
2019-03-08T04:34:59.043Z,20.20
2019-03-08T04:40:59.042Z,20.16
2019-03-08T04:46:59.073Z,20.14
2019-03-08T04:52:59.051Z,20.11
2019-03-08T04:58:59.070Z,20.10
2019-03-08T05:04:59.069Z,20.05
2019-03-08T05:10:59.180Z,20.05
2019-03-08T05:16:59.038Z,20.01
2019-03-08T05:22:59.056Z,19.97
2019-03-08T05:28:59.094Z,19.97
2019-03-08T05:34:59.062Z,19.91
2019-03-08T05:40:59.074Z,19.89
2019-03-08T05:46:59.098Z,19.89
2019-03-08T05:52:59.099Z,19.86
2019-03-08T05:58:59.311Z,19.82
2019-03-08T06:04:59.082Z,19.79
2019-03-08T06:10:59.077Z,19.78
2019-03-08T06:16:59.123Z,19.74
2019-03-08T06:22:59.128Z,19.73
2019-03-08T06:28:59.163Z,19.73
2019-03-08T06:34:59.103Z,19.69
2019-03-08T06:40:59.146Z,19.69
2019-03-08T06:46:59.176Z,19.66
2019-03-08T06:52:59.148Z,19.66
2019-03-08T06:58:59.476Z,19.64
2019-03-08T07:04:59.117Z,19.61
2019-03-08T07:10:59.134Z,19.57
2019-03-08T07:16:59.158Z,19.56
2019-03-08T07:22:59.143Z,19.52
2019-03-08T07:28:59.195Z,19.50
2019-03-08T07:34:59.156Z,19.47
2019-03-08T07:40:59.174Z,19.45
2019-03-08T07:46:59.178Z,19.42
2019-03-08T07:52:59.186Z,19.40
2019-03-08T07:58:59.185Z,19.38
2019-03-08T08:04:59.196Z,19.36
2019-03-08T08:10:59.200Z,19.36
2019-03-08T08:16:59.172Z,19.35
2019-03-08T08:22:59.194Z,19.34
2019-03-08T08:28:59.212Z,19.32
2019-03-08T08:34:59.226Z,19.31
2019-03-08T08:40:59.195Z,19.48
2019-03-08T08:46:59.213Z,19.53
2019-03-08T08:52:59.308Z,19.51
2019-03-08T08:58:59.235Z,19.53
2019-03-08T09:05:01.147Z,19.52
2019-03-08T09:10:59.218Z,19.57
2019-03-08T09:16:59.229Z,19.57
2019-03-08T09:22:59.232Z,19.56
2019-03-08T09:28:59.266Z,19.61
2019-03-08T09:34:59.279Z,19.56
2019-03-08T09:40:59.236Z,19.55
2019-03-08T09:46:59.283Z,19.53
2019-03-08T09:52:59.302Z,19.43
2019-03-08T09:58:59.251Z,19.46
2019-03-08T10:04:59.248Z,19.10
2019-03-08T10:10:59.274Z,19.33
2019-03-08T10:16:59.249Z,19.37
2019-03-08T10:22:59.231Z,19.29
2019-03-08T10:28:59.300Z,19.21
2019-03-08T10:34:59.321Z,19.18
2019-03-08T10:40:59.322Z,19.13
2019-03-08T10:46:59.309Z,19.11
2019-03-08T10:52:59.309Z,19.07
2019-03-08T10:58:59.336Z,19.04
2019-03-08T11:04:59.328Z,19.03
2019-03-08T11:11:06.113Z,19.01
2019-03-08T11:16:59.303Z,19.05
2019-03-08T11:22:59.311Z,19.10
2019-03-08T11:28:59.342Z,19.09
2019-03-08T11:34:59.354Z,19.12
2019-03-08T11:40:59.351Z,19.10
2019-03-08T11:46:59.405Z,19.12
2019-03-08T11:52:59.392Z,19.09
2019-03-08T11:58:59.318Z,19.05
2019-03-08T12:04:59.325Z,19.02
2019-03-08T12:10:59.380Z,18.97
2019-03-08T12:16:59.384Z,18.92
2019-03-08T12:22:59.331Z,18.89
2019-03-08T12:28:59.377Z,18.82
2019-03-08T12:34:59.402Z,18.80
2019-03-08T12:40:59.378Z,18.77
2019-03-08T12:46:59.421Z,18.74
2019-03-08T12:52:59.411Z,18.71
2019-03-08T12:59:00.619Z,18.68
2019-03-08T13:04:59.388Z,18.65
2019-03-08T13:10:59.409Z,18.64
2019-03-08T13:16:59.388Z,18.63
2019-03-08T13:22:59.421Z,18.63
2019-03-08T13:28:59.388Z,18.62
2019-03-08T13:34:59.391Z,18.62
2019-03-08T13:40:59.429Z,18.65
2019-03-08T13:46:59.423Z,18.70
2019-03-08T13:52:59.419Z,18.74
2019-03-08T13:59:00.278Z,18.78
2019-03-08T14:04:59.447Z,18.70
2019-03-08T14:10:59.398Z,18.63
2019-03-08T14:16:59.462Z,18.61
2019-03-08T14:22:59.438Z,18.63
2019-03-08T14:28:59.489Z,18.70
2019-03-08T14:34:59.443Z,18.76
2019-03-08T14:40:59.511Z,19.71
2019-03-08T14:46:59.536Z,19.07
2019-03-08T14:52:59.491Z,18.77
2019-03-08T14:58:59.634Z,18.68
2019-03-08T15:04:59.493Z,18.80
2019-03-08T15:10:59.459Z,18.74
2019-03-08T15:17:08.694Z,18.55
2019-03-08T15:22:59.513Z,18.62
2019-03-08T15:28:59.500Z,18.71
2019-03-08T15:34:59.486Z,18.72
2019-03-08T15:40:59.521Z,18.81
2019-03-08T15:47:00.473Z,18.91
2019-03-08T15:52:59.497Z,18.98
2019-03-08T15:58:59.658Z,19.15
2019-03-08T16:04:59.624Z,19.14
2019-03-08T16:11:00.573Z,19.21
2019-03-08T16:16:59.534Z,19.30
2019-03-08T16:23:02.592Z,19.27
2019-03-08T16:28:59.550Z,19.35
2019-03-08T16:34:59.594Z,19.43
2019-03-08T16:40:59.511Z,19.48
2019-03-08T16:46:59.538Z,19.57
2019-03-08T16:52:59.563Z,19.66
2019-03-08T16:58:59.548Z,19.79
2019-03-08T17:04:59.574Z,19.72
2019-03-08T17:10:59.536Z,19.81
2019-03-08T17:16:59.567Z,20.09
2019-03-08T17:22:59.562Z,20.03
2019-03-08T17:28:59.559Z,20.03
2019-03-08T17:34:59.570Z,20.14
2019-03-08T17:40:59.550Z,20.21
2019-03-08T17:46:59.596Z,20.28
2019-03-08T17:52:59.579Z,20.33
2019-03-08T17:58:59.601Z,20.39
2019-03-08T18:04:59.630Z,20.44
2019-03-08T18:10:59.581Z,20.50
2019-03-08T18:16:59.574Z,20.53
2019-03-08T18:23:00.627Z,20.57
2019-03-08T18:28:59.594Z,20.59
2019-03-08T18:34:59.659Z,20.63
2019-03-08T18:40:59.604Z,20.65
2019-03-08T18:46:59.668Z,20.65
2019-03-08T18:52:59.644Z,20.66
2019-03-08T18:58:59.690Z,20.67
2019-03-08T19:04:59.669Z,20.68
2019-03-08T19:10:59.634Z,20.68
2019-03-08T19:16:59.639Z,20.69
2019-03-08T19:22:59.650Z,20.70
2019-03-08T19:28:59.670Z,20.68
2019-03-08T19:34:59.641Z,20.66
2019-03-08T19:40:59.647Z,20.65
2019-03-08T19:46:59.700Z,20.65
2019-03-08T19:52:59.686Z,20.61
2019-03-08T19:58:59.723Z,20.60
2019-03-08T20:04:59.709Z,20.58
2019-03-08T20:10:59.716Z,20.54
2019-03-08T20:16:59.740Z,20.52
2019-03-08T20:22:59.692Z,20.52
2019-03-08T20:28:59.688Z,20.46
2019-03-08T20:34:59.733Z,20.56
2019-03-08T20:40:59.688Z,20.69
2019-03-08T20:46:59.733Z,20.71
2019-03-08T20:52:59.777Z,20.61
2019-03-08T20:58:59.762Z,20.50
2019-03-08T21:04:59.737Z,20.44
2019-03-08T21:10:59.772Z,20.40
2019-03-08T21:17:00.016Z,20.36
2019-03-08T21:22:59.729Z,20.32
2019-03-08T21:28:59.752Z,20.30
2019-03-08T21:34:59.810Z,20.27
2019-03-08T21:40:59.750Z,20.26
2019-03-08T21:46:59.780Z,20.24
2019-03-08T21:52:59.798Z,20.21
2019-03-08T21:58:59.787Z,20.21
2019-03-08T22:04:59.800Z,20.35
2019-03-08T22:10:59.772Z,20.22
2019-03-08T22:16:59.807Z,20.17
2019-03-08T22:22:59.879Z,20.15
2019-03-08T22:28:59.786Z,20.13
2019-03-08T22:34:59.814Z,20.09
2019-03-08T22:40:59.801Z,20.09
2019-03-08T22:46:59.781Z,20.05
2019-03-08T22:52:59.805Z,20.06
2019-03-08T22:58:59.815Z,19.98
2019-03-08T23:04:59.813Z,19.94
2019-03-08T23:10:59.812Z,20.03
2019-03-08T23:16:59.850Z,20.03
2019-03-08T23:22:59.811Z,19.96
2019-03-08T23:28:59.885Z,19.87
2019-03-08T23:34:59.809Z,19.85
2019-03-08T23:40:59.950Z,19.81
2019-03-08T23:46:59.828Z,19.77
2019-03-08T23:52:59.928Z,19.75
2019-03-08T23:58:59.883Z,19.71
